createdAt,value
2023-02-22T00:02:29.234Z,100.00
2023-02-22T00:07:33.974Z,100.00
2023-02-22T00:12:39.805Z,100.00
2023-02-22T00:17:44.246Z,100.00
2023-02-22T00:22:49.625Z,100.00
2023-02-22T00:27:56.713Z,100.00
2023-02-22T00:33:01.714Z,100.00
2023-02-22T00:38:06.486Z,100.00
2023-02-22T00:43:13.741Z,100.00
2023-02-22T00:48:18.582Z,100.00
2023-02-22T00:53:24.049Z,100.00
2023-02-22T00:58:30.152Z,100.00
2023-02-22T01:03:35.543Z,100.00
2023-02-22T01:08:39.982Z,100.00
2023-02-22T01:13:46.563Z,100.00
2023-02-22T01:18:51.073Z,100.00
2023-02-22T01:23:55.948Z,100.00
2023-02-22T01:29:01.821Z,100.00
2023-02-22T01:34:06.058Z,100.00
2023-02-22T01:39:10.809Z,100.00
2023-02-22T01:44:29.050Z,100.00
2023-02-22T01:49:40.756Z,100.00
2023-02-22T01:54:48.973Z,100.00
2023-02-22T01:59:59.873Z,100.00
2023-02-22T02:05:08.474Z,100.00
2023-02-22T02:10:15.734Z,100.00
2023-02-22T02:15:29.077Z,100.00
2023-02-22T02:20:43.860Z,100.00
2023-02-22T02:26:21.712Z,100.00
2023-02-22T02:32:16.930Z,100.00
2023-02-22T02:37:31.498Z,100.00
2023-02-22T02:42:41.079Z,100.00
2023-02-22T02:47:51.790Z,100.00
2023-02-22T02:53:02.711Z,100.00
2023-02-22T02:58:08.742Z,100.00
2023-02-22T03:03:34.612Z,100.00
2023-02-22T03:08:45.319Z,100.00
2023-02-22T03:13:57.076Z,100.00
2023-02-22T03:19:12.544Z,100.00
2023-02-22T03:24:23.740Z,100.00
2023-02-22T03:29:35.691Z,100.00
2023-02-22T03:34:46.304Z,100.00
2023-02-22T03:39:56.289Z,100.00
2023-02-22T03:45:02.934Z,100.00
2023-02-22T03:50:12.914Z,100.00
2023-02-22T03:55:19.057Z,100.00
2023-02-22T04:00:26.261Z,100.00
2023-02-22T04:05:30.515Z,100.00
2023-02-22T04:10:38.238Z,100.00
2023-02-22T04:15:42.674Z,100.00
2023-02-22T04:20:48.425Z,100.00
2023-02-22T04:26:07.077Z,100.00
2023-02-22T04:31:11.912Z,100.00
2023-02-22T04:36:16.662Z,100.00
2023-02-22T04:41:25.475Z,100.00
2023-02-22T04:46:31.669Z,100.00
2023-02-22T04:51:37.120Z,100.00
2023-02-22T04:56:48.714Z,100.00
2023-02-22T05:01:53.741Z,100.00
2023-02-22T05:06:58.327Z,100.00
2023-02-22T05:12:03.932Z,100.00
2023-02-22T05:17:08.112Z,100.00
2023-02-22T05:22:12.599Z,100.00
2023-02-22T05:27:18.242Z,100.00
2023-02-22T05:32:22.652Z,100.00
2023-02-22T05:37:27.684Z,100.00
2023-02-22T05:42:33.376Z,100.00
2023-02-22T05:47:37.546Z,100.00
2023-02-22T05:52:42.359Z,100.00
2023-02-22T05:57:48.820Z,100.00
2023-02-22T06:02:58.131Z,100.00
2023-02-22T06:08:03.068Z,100.00
2023-02-22T06:13:08.932Z,100.00
2023-02-22T06:18:13.114Z,100.00
2023-02-22T06:23:17.424Z,100.00
2023-02-22T06:28:24.124Z,100.00
2023-02-22T06:33:28.477Z,100.00
2023-02-22T06:38:33.452Z,100.00
2023-02-22T06:43:39.206Z,100.00
2023-02-22T06:48:44.696Z,100.00
2023-02-22T06:53:48.951Z,100.00
2023-02-22T06:58:55.510Z,100.00
2023-02-22T07:04:00.096Z,100.00
2023-02-22T07:09:05.241Z,100.00
2023-02-22T07:14:11.501Z,100.00
2023-02-22T07:19:15.992Z,100.00
2023-02-22T07:24:20.409Z,100.00
2023-02-22T07:29:26.251Z,100.00
2023-02-22T07:34:31.015Z,100.00
2023-02-22T07:39:35.691Z,100.00
2023-02-22T07:44:42.290Z,100.00
2023-02-22T07:49:46.772Z,100.00
2023-02-22T07:54:51.313Z,100.00
2023-02-22T07:59:56.889Z,100.00
2023-02-22T08:05:01.459Z,100.00
2023-02-22T08:10:07.963Z,100.00
2023-02-22T08:15:19.695Z,100.00
2023-02-22T08:20:24.108Z,100.00
2023-02-22T08:25:30.451Z,100.00
2023-02-22T08:30:40.059Z,100.00
2023-02-22T08:35:45.064Z,100.00
2023-02-22T08:40:50.718Z,100.00
2023-02-22T08:45:57.841Z,100.00
2023-02-22T08:51:02.390Z,100.00
2023-02-22T08:56:07.349Z,100.00
2023-02-22T09:01:19.251Z,99.51
2023-02-22T09:06:26.285Z,98.16
2023-02-22T09:11:30.498Z,98.48
2023-02-22T09:16:38.301Z,98.56
2023-02-22T09:21:42.831Z,98.15
2023-02-22T09:26:53.618Z,96.66
2023-02-22T09:31:59.490Z,95.10
2023-02-22T09:37:05.217Z,93.77
2023-02-22T09:42:14.923Z,93.53
2023-02-22T09:47:21.036Z,92.20
2023-02-22T09:52:29.460Z,90.65
2023-02-22T09:57:40.376Z,90.03
2023-02-22T10:02:53.937Z,91.09
2023-02-22T10:08:06.182Z,90.20
2023-02-22T10:13:22.695Z,87.78
2023-02-22T10:18:48.121Z,86.86
2023-02-22T10:24:02.523Z,88.92
2023-02-22T10:29:18.215Z,85.24
2023-02-22T10:34:27.352Z,83.41
2023-02-22T10:39:33.827Z,84.62
2023-02-22T10:44:39.954Z,80.81
2023-02-22T10:49:50.763Z,78.34
2023-02-22T10:55:13.581Z,81.39
2023-02-22T11:00:26.511Z,77.76
2023-02-22T11:05:37.485Z,76.83
2023-02-22T11:10:43.606Z,75.94
2023-02-22T11:15:48.252Z,70.03
2023-02-22T11:21:02.151Z,60.75
2023-02-22T11:26:10.125Z,61.91
2023-02-22T11:31:18.685Z,63.79
2023-02-22T11:36:41.113Z,62.78
2023-02-22T11:41:46.649Z,61.98
2023-02-22T11:46:51.055Z,61.96
2023-02-22T11:52:26.141Z,62.79
2023-02-22T11:57:52.822Z,60.49
2023-02-22T12:03:13.848Z,57.07
2023-02-22T12:08:31.585Z,55.69
2023-02-22T12:13:51.443Z,55.14
2023-02-22T12:19:12.866Z,56.38
2023-02-22T12:24:24.675Z,57.42
2023-02-22T12:29:37.797Z,59.90
2023-02-22T12:34:47.965Z,60.55
2023-02-22T12:40:01.246Z,58.41
2023-02-22T12:45:17.059Z,58.04
2023-02-22T12:50:24.505Z,58.12
2023-02-22T12:55:35.046Z,58.97
2023-02-22T13:00:46.387Z,57.75
2023-02-22T13:05:58.525Z,58.41
2023-02-22T13:11:16.606Z,58.06
2023-02-22T13:16:33.939Z,56.71
2023-02-22T13:21:49.578Z,56.36
2023-02-22T13:27:00.404Z,56.14
2023-02-22T13:32:30.738Z,56.01
2023-02-22T13:38:03.195Z,56.56
2023-02-22T13:43:28.516Z,56.27
2023-02-22T13:48:54.238Z,56.89
2023-02-22T13:54:04.766Z,57.04
2023-02-22T13:59:25.350Z,56.61
2023-02-22T14:04:40.607Z,56.60
2023-02-22T14:09:49.463Z,55.69
2023-02-22T14:15:29.295Z,56.73
2023-02-22T14:20:36.918Z,55.56
2023-02-22T14:25:43.860Z,55.68
2023-02-22T14:30:49.853Z,56.94
2023-02-22T14:35:54.593Z,57.18
2023-02-22T14:41:03.658Z,56.05
2023-02-22T14:46:13.641Z,56.57
2023-02-22T14:51:25.131Z,57.44
2023-02-22T14:56:39.669Z,57.65
2023-02-22T15:01:58.688Z,57.63
2023-02-22T15:07:21.707Z,58.73
2023-02-22T15:12:30.365Z,58.18
2023-02-22T15:17:36.262Z,59.56
2023-02-22T15:22:40.697Z,59.02
2023-02-22T15:27:48.075Z,58.68
2023-02-22T15:33:04.057Z,59.75
2023-02-22T15:38:20.467Z,60.51
2023-02-22T15:43:28.656Z,60.41
2023-02-22T15:48:37.423Z,61.24
2023-02-22T15:53:44.582Z,61.62
2023-02-22T15:58:49.770Z,62.54
2023-02-22T16:03:58.780Z,63.27
2023-02-22T16:09:10.018Z,64.58
2023-02-22T16:14:29.417Z,66.27
2023-02-22T16:19:42.718Z,67.80
2023-02-22T16:24:52.539Z,69.09
2023-02-22T16:30:23.314Z,70.37
2023-02-22T16:35:30.528Z,70.36
2023-02-22T16:40:36.966Z,71.66
2023-02-22T16:45:42.564Z,72.43
2023-02-22T16:50:51.297Z,73.26
2023-02-22T16:56:00.729Z,74.46
2023-02-22T17:01:05.336Z,76.01
2023-02-22T17:06:11.772Z,77.86
2023-02-22T17:11:16.366Z,78.12
2023-02-22T17:16:21.305Z,79.18
2023-02-22T17:21:27.625Z,80.03
2023-02-22T17:26:32.099Z,79.49
2023-02-22T17:31:36.857Z,79.92
2023-02-22T17:36:42.858Z,80.83
2023-02-22T17:41:48.191Z,80.36
2023-02-22T17:46:53.164Z,79.25
2023-02-22T17:51:58.805Z,79.76
2023-02-22T17:57:03.166Z,80.24
2023-02-22T18:02:07.842Z,80.68
2023-02-22T18:07:14.523Z,80.96
2023-02-22T18:12:18.657Z,81.31
2023-02-22T18:17:23.026Z,82.97
2023-02-22T18:22:28.999Z,84.48
2023-02-22T18:27:33.117Z,84.86
2023-02-22T18:32:37.315Z,84.62
2023-02-22T18:37:44.652Z,84.48
2023-02-22T18:42:49.000Z,85.52
2023-02-22T18:47:53.371Z,86.58
2023-02-22T18:52:59.121Z,86.82
2023-02-22T18:58:04.855Z,86.37
2023-02-22T19:03:10.422Z,86.56
2023-02-22T19:08:16.372Z,87.22
2023-02-22T19:13:21.480Z,89.56
2023-02-22T19:18:25.677Z,88.95
2023-02-22T19:23:34.490Z,88.47
2023-02-22T19:28:40.342Z,88.15
2023-02-22T19:33:45.018Z,87.41
2023-02-22T19:38:50.842Z,87.84
2023-02-22T19:43:56.224Z,87.81
2023-02-22T19:49:02.134Z,87.55
2023-02-22T19:54:13.046Z,86.84
2023-02-22T19:59:21.456Z,86.14
2023-02-22T20:04:30.769Z,87.28
2023-02-22T20:09:39.814Z,87.46
2023-02-22T20:14:44.371Z,87.20
2023-02-22T20:19:50.652Z,88.10
2023-02-22T20:24:56.767Z,87.99
2023-02-22T20:30:01.081Z,87.93
2023-02-22T20:35:05.924Z,88.15
2023-02-22T20:40:12.320Z,88.91
2023-02-22T20:45:20.103Z,89.79
2023-02-22T20:50:24.225Z,89.83
2023-02-22T20:55:30.647Z,89.37
2023-02-22T21:00:35.974Z,89.03
2023-02-22T21:05:44.233Z,89.20
2023-02-22T21:10:50.543Z,89.98
2023-02-22T21:15:55.045Z,90.17
2023-02-22T21:21:03.417Z,90.50
2023-02-22T21:26:15.795Z,91.12
2023-02-22T21:31:22.255Z,92.30
2023-02-22T21:36:28.088Z,92.74
2023-02-22T21:41:34.191Z,93.84
2023-02-22T21:46:39.274Z,94.68
2023-02-22T21:51:44.880Z,94.14
2023-02-22T21:56:50.994Z,94.75
2023-02-22T22:01:56.781Z,94.97
2023-02-22T22:07:04.012Z,95.35
2023-02-22T22:12:11.880Z,96.11
2023-02-22T22:17:16.109Z,96.55
2023-02-22T22:22:20.627Z,97.08
2023-02-22T22:27:26.183Z,98.42
2023-02-22T22:32:30.986Z,99.08
2023-02-22T22:37:35.215Z,99.44
2023-02-22T22:42:40.910Z,99.53
2023-02-22T22:47:46.949Z,100.00
2023-02-22T22:52:51.064Z,100.00
2023-02-22T22:57:56.719Z,100.00
2023-02-22T23:03:05.704Z,100.00
2023-02-22T23:08:13.026Z,100.00
2023-02-22T23:13:20.298Z,100.00
2023-02-22T23:18:24.489Z,100.00
2023-02-22T23:23:29.450Z,100.00
2023-02-22T23:28:35.234Z,100.00
2023-02-22T23:33:39.610Z,100.00
2023-02-22T23:38:44.450Z,100.00
2023-02-22T23:43:51.926Z,100.00
2023-02-22T23:49:01.779Z,100.00
2023-02-22T23:54:08.109Z,100.00
2023-02-22T23:59:14.564Z,100.00
